Macedonia, Iowa
Current Conditions -  °F | °C
As of 6:15 PM on Thursday 27 Nov 2014 (Local Time) from KRDK Reporting Station
Overcast Overcast  
Wind Chill: 10°   Ceiling: 14000
Heat Index: 21°   Visibility: 10mi
Dew Point: 12°   Wind: 10mph
Humidity: 68%   Direction: 130°SE
Pressure: 30.33"   Gusts: NA
Location:  41.19°N, 95.43°W
Report Text: KRDK 280015Z AUTO 13009KT 10SM FEW120 OVC140 M06/M11 A3033 RMK AO2
Loading
Personal Weather Stations






























Interactive Weather Map New forecast layout! Learn more

10-Day Weather Forecast

Advertisements
Track Severe Weather on mobile